createdAt,value
2023-03-15T00:01:21.147Z,2.53
2023-03-15T00:03:48.039Z,1.80
2023-03-15T00:06:14.740Z,1.77
2023-03-15T00:08:41.229Z,3.85
2023-03-15T00:11:07.781Z,2.70
2023-03-15T00:13:34.362Z,2.15
2023-03-15T00:16:06.013Z,2.38
2023-03-15T00:18:32.539Z,2.88
2023-03-15T00:20:59.221Z,2.55
2023-03-15T00:23:26.401Z,3.08
2023-03-15T00:25:53.688Z,1.85
2023-03-15T00:28:20.706Z,2.38
2023-03-15T00:30:47.164Z,3.67
2023-03-15T00:33:14.938Z,1.70
2023-03-15T00:35:43.346Z,1.92
2023-03-15T00:38:10.640Z,2.67
2023-03-15T00:40:38.172Z,2.28
2023-03-15T00:43:15.191Z,2.00
2023-03-15T00:45:41.544Z,1.77
2023-03-15T00:48:08.836Z,2.03
2023-03-15T00:50:35.290Z,2.78
2023-03-15T00:53:01.781Z,1.95
2023-03-15T00:55:28.383Z,2.80
2023-03-15T00:57:54.960Z,2.17
2023-03-15T01:00:24.657Z,1.85
2023-03-15T01:02:53.004Z,1.63
2023-03-15T01:05:19.641Z,1.83
2023-03-15T01:07:46.153Z,2.00
2023-03-15T01:10:14.573Z,1.83
2023-03-15T01:12:41.618Z,2.35
2023-03-15T01:15:10.402Z,1.75
2023-03-15T01:17:36.758Z,2.72
2023-03-15T01:20:05.364Z,2.30
2023-03-15T01:22:31.778Z,2.70
2023-03-15T01:24:58.184Z,2.08
2023-03-15T01:27:24.650Z,2.03
2023-03-15T01:29:51.059Z,2.20
2023-03-15T01:32:17.434Z,2.60
2023-03-15T01:34:43.945Z,2.50
2023-03-15T01:37:14.344Z,2.53
2023-03-15T01:39:42.477Z,2.15
2023-03-15T01:42:10.044Z,1.90
2023-03-15T01:45:25.896Z,2.38
2023-03-15T01:47:53.422Z,1.80
2023-03-15T01:50:19.869Z,2.35
2023-03-15T01:52:46.784Z,2.40
2023-03-15T01:55:16.743Z,1.90
2023-03-15T01:57:56.287Z,2.70
2023-03-15T02:00:22.843Z,2.45
2023-03-15T02:02:55.062Z,2.15
2023-03-15T02:05:29.779Z,2.78
2023-03-15T02:07:56.454Z,1.70
2023-03-15T02:10:33.872Z,2.55
2023-03-15T02:13:00.642Z,1.80
2023-03-15T02:15:27.552Z,2.47
2023-03-15T02:17:53.969Z,2.88
2023-03-15T02:20:40.628Z,2.20
2023-03-15T02:23:11.893Z,1.85
2023-03-15T02:26:13.541Z,2.97
2023-03-15T02:28:41.478Z,2.45
2023-03-15T02:31:08.169Z,2.35
2023-03-15T02:33:44.790Z,2.75
2023-03-15T02:36:21.594Z,2.28
2023-03-15T02:38:49.569Z,2.45
2023-03-15T02:41:24.496Z,2.35
2023-03-15T02:43:55.413Z,2.53
2023-03-15T02:46:22.858Z,3.70
2023-03-15T02:48:49.894Z,2.42
2023-03-15T02:51:28.399Z,2.20
2023-03-15T02:53:54.864Z,2.92
2023-03-15T02:56:21.370Z,3.92
2023-03-15T02:58:48.240Z,2.50
2023-03-15T03:01:16.115Z,3.38
2023-03-15T03:03:45.053Z,2.92
2023-03-15T03:06:13.300Z,2.47
2023-03-15T03:08:39.776Z,2.13
2023-03-15T03:11:07.313Z,2.55
2023-03-15T03:13:33.979Z,2.10
2023-03-15T03:16:00.376Z,1.70
2023-03-15T03:18:28.773Z,1.90
2023-03-15T03:20:56.995Z,2.80
2023-03-15T03:23:27.189Z,2.78
2023-03-15T03:25:55.398Z,2.15
2023-03-15T03:28:24.124Z,2.40
2023-03-15T03:30:52.437Z,3.15
2023-03-15T03:33:19.377Z,2.20
2023-03-15T03:35:45.826Z,2.90
2023-03-15T03:38:12.623Z,2.78
2023-03-15T03:40:39.950Z,3.20
2023-03-15T03:43:07.708Z,2.83
2023-03-15T03:45:34.936Z,1.73
2023-03-15T03:48:03.749Z,3.88
2023-03-15T03:50:31.754Z,2.30
2023-03-15T03:52:58.156Z,2.53
2023-03-15T03:55:25.386Z,3.38
2023-03-15T03:57:53.039Z,2.78
2023-03-15T04:00:19.995Z,2.55
2023-03-15T04:02:46.507Z,2.60
2023-03-15T04:05:13.561Z,2.67
2023-03-15T04:07:40.157Z,3.08
2023-03-15T04:10:06.856Z,3.67
2023-03-15T04:12:33.389Z,2.17
2023-03-15T04:14:59.867Z,2.58
2023-03-15T04:17:26.216Z,3.08
2023-03-15T04:19:52.869Z,2.30
2023-03-15T04:22:19.312Z,2.90
2023-03-15T04:24:45.748Z,2.90
2023-03-15T04:27:15.064Z,2.35
2023-03-15T04:29:43.518Z,2.17
2023-03-15T04:32:10.623Z,2.67
2023-03-15T04:34:39.931Z,2.20
2023-03-15T04:37:06.625Z,2.40
2023-03-15T04:39:33.022Z,2.55
2023-03-15T04:41:59.587Z,2.88
2023-03-15T04:44:27.409Z,2.20
2023-03-15T04:46:54.840Z,3.15
2023-03-15T04:49:21.536Z,2.10
2023-03-15T04:51:47.884Z,3.90
2023-03-15T04:54:14.353Z,2.25
2023-03-15T04:56:42.086Z,3.15
2023-03-15T04:59:10.521Z,2.10
2023-03-15T05:01:38.279Z,2.28
2023-03-15T05:04:04.904Z,2.00
2023-03-15T05:06:31.462Z,2.38
2023-03-15T05:08:57.881Z,2.90
2023-03-15T05:11:24.622Z,2.30
2023-03-15T05:13:51.053Z,2.78
2023-03-15T05:16:17.733Z,2.45
2023-03-15T05:18:45.214Z,3.92
2023-03-15T05:21:13.053Z,3.55
2023-03-15T05:23:39.891Z,2.88
2023-03-15T05:26:06.366Z,2.63
2023-03-15T05:28:32.862Z,2.33
2023-03-15T05:31:00.644Z,2.35
2023-03-15T05:33:27.341Z,2.40
2023-03-15T05:35:56.180Z,2.72
2023-03-15T05:38:26.401Z,3.05
2023-03-15T05:40:53.415Z,2.45
2023-03-15T05:43:20.246Z,4.45
2023-03-15T05:45:48.502Z,3.03
2023-03-15T05:48:16.824Z,2.72
2023-03-15T05:50:43.447Z,2.25
2023-03-15T05:53:10.456Z,2.65
2023-03-15T05:55:37.362Z,3.13
2023-03-15T05:58:03.767Z,2.38
2023-03-15T06:00:30.604Z,2.45
2023-03-15T06:02:57.044Z,2.63
2023-03-15T06:05:23.462Z,3.20
2023-03-15T06:07:49.886Z,2.60
2023-03-15T06:10:16.451Z,2.60
2023-03-15T06:12:42.884Z,4.00
2023-03-15T06:15:09.780Z,2.70
2023-03-15T06:17:36.336Z,2.45
2023-03-15T06:20:02.747Z,2.85
2023-03-15T06:22:29.100Z,2.83
2023-03-15T06:24:55.521Z,2.65
2023-03-15T06:27:22.208Z,3.50
2023-03-15T06:29:50.369Z,2.35
2023-03-15T06:32:16.966Z,2.58
2023-03-15T06:34:44.303Z,2.95
2023-03-15T06:37:16.380Z,2.33
2023-03-15T06:39:46.815Z,2.47
2023-03-15T06:42:13.691Z,2.42
2023-03-15T06:44:41.173Z,3.38
2023-03-15T06:47:09.131Z,2.13
2023-03-15T06:49:35.660Z,2.72
2023-03-15T06:52:03.807Z,3.42
2023-03-15T06:54:30.851Z,2.88
2023-03-15T06:56:57.635Z,2.80
2023-03-15T06:59:24.307Z,3.15
2023-03-15T07:01:50.822Z,2.85
2023-03-15T07:04:17.245Z,3.10
2023-03-15T07:06:43.711Z,3.10
2023-03-15T07:09:10.191Z,3.00
2023-03-15T07:11:36.557Z,3.08
2023-03-15T07:14:02.953Z,2.83
2023-03-15T07:16:29.410Z,3.63
2023-03-15T07:18:56.519Z,2.92
2023-03-15T07:21:22.987Z,2.65
2023-03-15T07:23:49.416Z,3.88
2023-03-15T07:26:15.841Z,3.72
2023-03-15T07:28:44.640Z,3.90
2023-03-15T07:31:11.906Z,3.45
2023-03-15T07:33:38.689Z,3.75
2023-03-15T07:36:06.674Z,3.92
2023-03-15T07:38:34.322Z,4.78
2023-03-15T07:41:05.528Z,3.80
2023-03-15T07:43:32.819Z,3.50
2023-03-15T07:45:59.711Z,3.95
2023-03-15T07:48:26.291Z,3.95
2023-03-15T07:50:52.737Z,3.85
2023-03-15T07:53:19.178Z,3.50
2023-03-15T07:55:47.366Z,4.03
2023-03-15T07:58:13.992Z,4.25
2023-03-15T08:00:40.802Z,3.78
2023-03-15T08:03:08.354Z,4.15
2023-03-15T08:05:36.141Z,4.00
2023-03-15T08:08:03.223Z,4.20
2023-03-15T08:10:29.734Z,4.15
2023-03-15T08:12:56.153Z,3.78
2023-03-15T08:15:22.658Z,3.42
2023-03-15T08:17:49.247Z,3.85
2023-03-15T08:20:19.843Z,4.78
2023-03-15T08:22:48.579Z,3.97
2023-03-15T08:25:17.421Z,3.45
2023-03-15T08:27:44.192Z,4.13
2023-03-15T08:30:12.696Z,4.00
2023-03-15T08:32:44.536Z,3.78
2023-03-15T08:35:15.153Z,4.57
2023-03-15T08:37:46.954Z,4.82
2023-03-15T08:40:19.177Z,5.15
2023-03-15T08:42:45.745Z,3.58
2023-03-15T08:45:12.376Z,4.28
2023-03-15T08:47:38.822Z,4.13
2023-03-15T08:50:08.539Z,4.90
2023-03-15T08:52:35.059Z,4.43
2023-03-15T08:55:01.574Z,3.42
2023-03-15T08:57:28.890Z,3.72
2023-03-15T08:59:56.070Z,3.03
2023-03-15T09:02:23.531Z,3.78
2023-03-15T09:04:52.397Z,3.25
2023-03-15T09:07:20.601Z,3.67
2023-03-15T09:09:48.194Z,3.25
2023-03-15T09:12:16.247Z,3.50
2023-03-15T09:14:43.361Z,3.08
2023-03-15T09:17:10.357Z,2.85
2023-03-15T09:19:36.920Z,2.70
2023-03-15T09:22:16.421Z,2.63
2023-03-15T09:24:43.694Z,2.95
2023-03-15T09:27:11.683Z,2.83
2023-03-15T09:29:38.094Z,4.10
2023-03-15T09:32:04.815Z,3.47
2023-03-15T09:34:39.868Z,3.75
2023-03-15T09:37:08.626Z,3.75
2023-03-15T09:39:35.048Z,3.42
2023-03-15T09:42:06.459Z,3.42
2023-03-15T09:47:36.587Z,3.15
2023-03-15T09:50:22.641Z,2.85
2023-03-15T09:52:56.224Z,3.10
2023-03-15T09:55:28.516Z,2.70
2023-03-15T09:57:59.740Z,3.25
2023-03-15T10:00:36.575Z,2.42
2023-03-15T10:03:07.021Z,3.20
2023-03-15T10:05:47.246Z,3.00
2023-03-15T10:08:17.453Z,3.28
2023-03-15T10:11:27.036Z,2.60
2023-03-15T10:14:11.842Z,2.60
2023-03-15T10:16:44.227Z,3.22
2023-03-15T10:19:31.827Z,2.85
2023-03-15T10:22:18.508Z,2.70
2023-03-15T10:25:01.986Z,3.20
2023-03-15T10:27:34.557Z,3.30
2023-03-15T10:30:02.502Z,2.45
2023-03-15T10:32:43.282Z,3.80
2023-03-15T10:35:18.357Z,2.83
2023-03-15T10:37:45.358Z,2.42
2023-03-15T10:40:16.533Z,2.38
2023-03-15T10:42:44.957Z,3.03
2023-03-15T10:45:19.838Z,2.80
2023-03-15T10:47:57.735Z,2.92
2023-03-15T10:50:29.096Z,2.60
2023-03-15T10:52:57.578Z,2.30
2023-03-15T10:55:36.824Z,2.50
2023-03-15T10:58:20.917Z,2.97
2023-03-15T11:00:52.642Z,2.55
2023-03-15T11:03:22.467Z,2.35
2023-03-15T11:05:53.181Z,3.20
2023-03-15T11:08:22.527Z,2.88
2023-03-15T11:11:00.131Z,2.40
2023-03-15T11:13:29.219Z,2.70
2023-03-15T11:16:13.937Z,2.78
2023-03-15T11:18:47.108Z,2.28
2023-03-15T11:21:17.252Z,2.53
2023-03-15T11:23:47.880Z,2.28
2023-03-15T11:26:32.301Z,2.97
2023-03-15T11:29:04.756Z,2.60
2023-03-15T11:31:31.742Z,2.38
2023-03-15T11:34:03.369Z,3.05
2023-03-15T11:39:02.840Z,2.33
2023-03-15T11:41:43.816Z,2.20
2023-03-15T11:44:23.509Z,2.67
2023-03-15T11:46:57.729Z,2.50
2023-03-15T11:49:35.212Z,2.10
2023-03-15T11:52:02.297Z,2.60
2023-03-15T11:54:32.080Z,2.17
2023-03-15T11:57:06.210Z,2.03
2023-03-15T11:59:40.399Z,2.05
2023-03-15T12:02:09.686Z,2.25
2023-03-15T12:04:36.261Z,2.05
2023-03-15T12:07:27.723Z,1.77
2023-03-15T12:10:18.485Z,1.70
2023-03-15T12:12:47.239Z,2.38
2023-03-15T12:15:19.864Z,1.88
2023-03-15T12:17:58.034Z,1.60
2023-03-15T12:20:40.801Z,1.70
2023-03-15T12:23:18.928Z,1.75
2023-03-15T12:26:03.786Z,2.40
2023-03-15T12:28:36.334Z,1.92
2023-03-15T12:31:09.630Z,1.92
2023-03-15T12:33:54.974Z,2.03
2023-03-15T12:36:38.006Z,1.80
2023-03-15T12:39:16.578Z,1.30
2023-03-15T12:41:48.773Z,2.25
2023-03-15T12:44:23.905Z,1.50
2023-03-15T12:46:50.297Z,1.50
2023-03-15T12:49:16.675Z,0.90
2023-03-15T12:51:59.836Z,1.30
2023-03-15T12:54:33.258Z,1.55
2023-03-15T12:57:03.180Z,1.20
2023-03-15T12:59:49.044Z,1.13
2023-03-15T13:02:35.840Z,1.05
2023-03-15T13:05:30.178Z,1.25
2023-03-15T13:08:23.225Z,0.85
2023-03-15T13:11:07.737Z,0.95
2023-03-15T13:14:11.029Z,1.10
2023-03-15T13:16:58.952Z,1.00
2023-03-15T13:19:34.916Z,1.27
2023-03-15T13:22:29.006Z,1.20
2023-03-15T13:25:15.757Z,2.13
2023-03-15T13:28:04.439Z,1.30
2023-03-15T13:30:46.622Z,1.10
2023-03-15T13:33:19.024Z,2.05
2023-03-15T13:35:55.303Z,4.22
2023-03-15T13:38:32.354Z,1.63
2023-03-15T13:41:03.446Z,0.93
2023-03-15T13:43:33.294Z,1.38
2023-03-15T13:46:00.866Z,1.42
2023-03-15T13:48:35.628Z,1.45
2023-03-15T13:51:09.257Z,1.70
2023-03-15T13:53:49.814Z,1.63
2023-03-15T13:56:48.839Z,1.37
2023-03-15T13:59:17.313Z,1.40
2023-03-15T14:01:43.814Z,1.23
2023-03-15T14:04:16.303Z,1.48
2023-03-15T14:06:45.565Z,1.33
2023-03-15T14:09:23.768Z,1.70
2023-03-15T14:12:05.343Z,1.73
2023-03-15T14:14:36.714Z,1.48
2023-03-15T14:17:17.940Z,1.40
2023-03-15T14:19:54.113Z,1.63
2023-03-15T14:22:21.326Z,1.20
2023-03-15T14:24:51.750Z,1.13
2023-03-15T14:27:25.420Z,1.50
2023-03-15T14:29:54.740Z,1.38
2023-03-15T14:32:36.385Z,1.30
2023-03-15T14:37:41.144Z,1.33
2023-03-15T14:40:16.885Z,1.25
2023-03-15T14:42:44.930Z,1.10
2023-03-15T14:45:12.063Z,1.98
2023-03-15T14:47:55.357Z,1.67
2023-03-15T14:50:24.231Z,1.20
2023-03-15T14:52:51.401Z,0.80
2023-03-15T14:55:22.556Z,1.30
2023-03-15T14:57:49.092Z,1.00
2023-03-15T15:00:17.671Z,1.08
2023-03-15T15:02:55.291Z,1.10
2023-03-15T15:05:23.522Z,1.52
2023-03-15T15:07:54.698Z,1.00
2023-03-15T15:10:23.424Z,1.00
2023-03-15T15:12:56.161Z,1.35
2023-03-15T15:15:30.989Z,0.93
2023-03-15T15:17:58.637Z,1.23
2023-03-15T15:20:25.314Z,0.88
2023-03-15T15:22:52.205Z,1.17
2023-03-15T15:25:24.053Z,1.10
2023-03-15T15:27:50.573Z,1.00
2023-03-15T15:30:19.565Z,1.20
2023-03-15T15:32:46.334Z,1.20
2023-03-15T15:35:18.519Z,1.13
2023-03-15T15:37:47.875Z,1.70
2023-03-15T15:40:25.845Z,1.40
2023-03-15T15:42:52.370Z,1.58
2023-03-15T15:45:19.564Z,1.10
2023-03-15T15:47:46.607Z,2.05
2023-03-15T15:50:16.265Z,1.88
2023-03-15T15:52:52.893Z,1.70
2023-03-15T15:55:24.570Z,1.67
2023-03-15T15:57:53.920Z,1.08
2023-03-15T16:00:25.718Z,1.30
2023-03-15T16:02:54.590Z,1.27
2023-03-15T16:05:23.981Z,1.63
2023-03-15T16:07:51.860Z,1.50
2023-03-15T16:10:22.053Z,1.50
2023-03-15T16:12:50.409Z,1.85
2023-03-15T16:15:17.851Z,1.42
2023-03-15T16:17:45.291Z,1.33
2023-03-15T16:20:13.655Z,1.23
2023-03-15T16:22:46.568Z,1.75
2023-03-15T16:25:23.642Z,1.85
2023-03-15T16:27:54.464Z,2.10
2023-03-15T16:30:26.804Z,1.42
2023-03-15T16:32:56.504Z,1.45
2023-03-15T16:35:26.905Z,1.60
2023-03-15T16:37:56.466Z,1.30
2023-03-15T16:40:44.942Z,1.67
2023-03-15T16:43:13.724Z,1.63
2023-03-15T16:45:40.964Z,2.05
2023-03-15T16:48:07.620Z,1.30
2023-03-15T16:50:34.870Z,1.42
2023-03-15T16:53:05.075Z,1.58
2023-03-15T16:55:35.230Z,1.50
2023-03-15T16:58:04.559Z,1.77
2023-03-15T17:00:31.618Z,1.85
2023-03-15T17:03:01.605Z,2.80
2023-03-15T17:05:28.610Z,1.42
2023-03-15T17:07:55.602Z,2.38
2023-03-15T17:10:23.007Z,1.63
2023-03-15T17:12:51.346Z,1.80
2023-03-15T17:15:20.398Z,1.80
2023-03-15T17:17:48.648Z,1.90
2023-03-15T17:20:21.479Z,2.13
2023-03-15T17:22:53.744Z,2.15
2023-03-15T17:25:20.154Z,1.80
2023-03-15T17:27:49.159Z,2.05
2023-03-15T17:30:21.412Z,1.52
2023-03-15T17:32:48.196Z,2.00
2023-03-15T17:35:16.921Z,1.63
2023-03-15T17:37:44.606Z,1.70
2023-03-15T17:40:18.223Z,1.45
2023-03-15T17:42:44.709Z,2.05
2023-03-15T17:45:16.583Z,1.17
2023-03-15T17:47:43.545Z,1.92
2023-03-15T17:50:11.319Z,1.52
2023-03-15T17:52:37.964Z,1.75
2023-03-15T17:55:04.729Z,1.48
2023-03-15T17:57:31.154Z,1.48
2023-03-15T17:59:57.646Z,2.08
2023-03-15T18:02:24.548Z,1.35
2023-03-15T18:04:51.010Z,1.73
2023-03-15T18:07:17.447Z,1.40
2023-03-15T18:09:43.951Z,1.23
2023-03-15T18:12:11.659Z,1.40
2023-03-15T18:14:39.253Z,2.00
2023-03-15T18:17:05.722Z,1.77
2023-03-15T18:19:32.216Z,2.08
2023-03-15T18:21:58.702Z,1.77
2023-03-15T18:24:25.218Z,1.80
2023-03-15T18:26:52.836Z,1.83
2023-03-15T18:29:19.325Z,1.65
2023-03-15T18:31:45.895Z,1.40
2023-03-15T18:34:15.609Z,1.40
2023-03-15T18:36:42.112Z,1.60
2023-03-15T18:39:08.781Z,1.63
2023-03-15T18:41:35.314Z,1.77
2023-03-15T18:44:01.839Z,2.47
2023-03-15T18:46:28.419Z,3.20
2023-03-15T18:48:55.011Z,3.75
2023-03-15T18:51:28.149Z,3.67
2023-03-15T18:53:55.386Z,3.60
2023-03-15T18:56:24.500Z,2.35
2023-03-15T18:58:52.568Z,2.75
2023-03-15T19:01:22.856Z,3.17
2023-03-15T19:03:50.342Z,2.60
2023-03-15T19:06:17.449Z,2.50
2023-03-15T19:08:44.371Z,2.53
2023-03-15T19:11:11.270Z,2.28
2023-03-15T19:13:38.066Z,2.38
2023-03-15T19:16:04.825Z,2.22
2023-03-15T19:18:32.676Z,2.28
2023-03-15T19:20:59.454Z,2.08
2023-03-15T19:23:26.459Z,1.95
2023-03-15T19:25:53.079Z,1.77
2023-03-15T19:28:19.517Z,1.88
2023-03-15T19:30:46.016Z,1.90
2023-03-15T19:33:12.618Z,1.95
2023-03-15T19:35:39.161Z,2.22
2023-03-15T19:38:05.741Z,1.48
2023-03-15T19:40:32.181Z,1.92
2023-03-15T19:42:58.609Z,2.10
2023-03-15T19:45:25.397Z,2.17
2023-03-15T19:47:51.847Z,2.70
2023-03-15T19:50:18.479Z,3.10
2023-03-15T19:52:48.065Z,2.45
2023-03-15T19:55:16.933Z,3.17
2023-03-15T19:57:43.870Z,2.50
2023-03-15T20:00:14.686Z,2.72
2023-03-15T20:02:41.949Z,2.28
2023-03-15T20:05:10.560Z,2.40
2023-03-15T20:07:37.610Z,3.03
2023-03-15T20:10:05.907Z,1.90
2023-03-15T20:12:32.620Z,2.10
2023-03-15T20:14:59.394Z,2.78
2023-03-15T20:17:27.356Z,1.75
2023-03-15T20:19:54.145Z,2.20
2023-03-15T20:22:21.084Z,2.20
2023-03-15T20:24:47.683Z,2.10
2023-03-15T20:27:14.208Z,2.40
2023-03-15T20:29:40.715Z,2.30
2023-03-15T20:32:07.264Z,2.83
2023-03-15T20:34:33.812Z,2.38
2023-03-15T20:37:00.497Z,2.08
2023-03-15T20:39:26.992Z,2.35
2023-03-15T20:41:53.508Z,2.40
2023-03-15T20:44:20.048Z,2.10
2023-03-15T20:46:46.846Z,1.90
2023-03-15T20:49:15.031Z,2.28
2023-03-15T20:51:42.094Z,2.65
2023-03-15T20:54:09.335Z,2.47
2023-03-15T20:56:37.053Z,2.72
2023-03-15T20:59:04.422Z,2.33
2023-03-15T21:01:32.115Z,2.40
2023-03-15T21:03:59.215Z,2.15
2023-03-15T21:06:26.494Z,2.63
2023-03-15T21:08:53.604Z,2.55
2023-03-15T21:11:20.827Z,2.08
2023-03-15T21:13:47.806Z,2.45
2023-03-15T21:16:14.577Z,2.60
2023-03-15T21:18:45.118Z,1.85
2023-03-15T21:21:12.235Z,1.90
2023-03-15T21:23:38.800Z,2.25
2023-03-15T21:26:08.174Z,2.92
2023-03-15T21:28:35.779Z,2.10
2023-03-15T21:31:02.661Z,2.42
2023-03-15T21:33:31.368Z,1.92
2023-03-15T21:35:59.527Z,2.60
2023-03-15T21:38:34.989Z,2.45
2023-03-15T21:41:07.285Z,2.00
2023-03-15T21:43:34.303Z,3.05
2023-03-15T21:46:11.859Z,2.95
2023-03-15T21:48:38.633Z,2.42
2023-03-15T21:51:07.258Z,2.05
2023-03-15T21:53:35.455Z,3.13
2023-03-15T21:56:03.888Z,2.00
2023-03-15T21:58:30.742Z,2.22
2023-03-15T22:01:06.024Z,1.95
2023-03-15T22:03:33.924Z,2.00
2023-03-15T22:06:00.806Z,2.03
2023-03-15T22:08:27.740Z,2.00
2023-03-15T22:10:55.478Z,1.65
2023-03-15T22:13:22.288Z,3.42
2023-03-15T22:15:48.914Z,2.33
2023-03-15T22:18:15.456Z,1.80
2023-03-15T22:20:41.899Z,1.55
2023-03-15T22:23:08.711Z,1.98
2023-03-15T22:25:37.454Z,2.33
2023-03-15T22:28:03.945Z,1.67
2023-03-15T22:30:30.509Z,2.35
2023-03-15T22:32:57.173Z,2.13
2023-03-15T22:35:23.893Z,2.53
2023-03-15T22:37:56.419Z,1.83
2023-03-15T22:40:27.953Z,1.75
2023-03-15T22:42:57.317Z,1.70
2023-03-15T22:45:26.101Z,2.78
2023-03-15T22:47:53.419Z,2.05
2023-03-15T22:50:20.446Z,1.70
2023-03-15T22:52:47.490Z,2.15
2023-03-15T22:55:14.395Z,1.75
2023-03-15T22:57:40.863Z,1.85
2023-03-15T23:00:13.939Z,1.67
2023-03-15T23:02:42.063Z,1.90
2023-03-15T23:05:09.897Z,2.33
2023-03-15T23:07:36.405Z,2.10
2023-03-15T23:10:03.612Z,1.83
2023-03-15T23:12:35.844Z,1.95
2023-03-15T23:15:04.501Z,1.77
2023-03-15T23:17:31.290Z,2.17
2023-03-15T23:19:58.061Z,2.03
2023-03-15T23:22:24.606Z,1.85
2023-03-15T23:24:51.491Z,1.90
2023-03-15T23:27:18.012Z,2.20
2023-03-15T23:29:54.129Z,3.13
2023-03-15T23:32:22.030Z,2.15
2023-03-15T23:34:48.758Z,2.05
2023-03-15T23:37:15.389Z,2.30
2023-03-15T23:39:42.390Z,2.10
2023-03-15T23:42:09.092Z,2.45
2023-03-15T23:44:35.596Z,2.47
2023-03-15T23:47:03.486Z,2.20
2023-03-15T23:49:29.965Z,2.13
2023-03-15T23:51:56.345Z,2.40
2023-03-15T23:54:22.834Z,2.35
2023-03-15T23:56:49.333Z,2.10
2023-03-15T23:59:15.913Z,2.45
